createdAt,value
2022-08-31T00:02:01.265Z,4.13
2022-08-31T00:04:32.748Z,4.53
2022-08-31T00:07:03.183Z,5.60
2022-08-31T00:09:33.915Z,5.75
2022-08-31T00:12:08.100Z,6.07
2022-08-31T00:14:39.651Z,5.97
2022-08-31T00:17:09.949Z,4.95
2022-08-31T00:19:43.157Z,6.43
2022-08-31T00:22:15.688Z,4.15
2022-08-31T00:24:45.876Z,3.95
2022-08-31T00:27:21.127Z,5.15
2022-08-31T00:29:51.268Z,6.80
2022-08-31T00:32:22.955Z,6.85
2022-08-31T00:34:56.816Z,4.88
2022-08-31T00:37:27.050Z,4.85
2022-08-31T00:39:57.239Z,5.55
2022-08-31T00:42:32.608Z,4.50
2022-08-31T00:45:02.799Z,6.38
2022-08-31T00:47:32.993Z,6.22
2022-08-31T00:50:05.045Z,6.65
2022-08-31T00:52:43.021Z,5.72
2022-08-31T00:55:19.902Z,10.38
2022-08-31T00:57:59.987Z,6.93
2022-08-31T01:00:32.044Z,7.80
2022-08-31T01:03:06.341Z,7.90
2022-08-31T01:05:37.932Z,8.98
2022-08-31T01:08:10.113Z,7.65
2022-08-31T01:10:44.910Z,7.03
2022-08-31T01:13:20.021Z,6.80
2022-08-31T01:16:01.208Z,6.95
2022-08-31T01:18:34.102Z,7.88
2022-08-31T01:21:23.165Z,7.38
2022-08-31T01:23:59.749Z,6.97
2022-08-31T01:26:33.759Z,9.25
2022-08-31T01:29:08.790Z,6.65
2022-08-31T01:31:44.226Z,8.45
2022-08-31T01:34:16.644Z,7.75
2022-08-31T01:36:48.263Z,7.25
2022-08-31T01:39:22.733Z,8.15
2022-08-31T01:41:54.052Z,7.72
2022-08-31T01:44:27.287Z,7.28
2022-08-31T01:46:59.011Z,7.65
2022-08-31T01:49:29.356Z,10.43
2022-08-31T01:51:59.536Z,7.47
2022-08-31T01:54:32.367Z,7.20
2022-08-31T01:57:04.006Z,7.85
2022-08-31T01:59:34.450Z,7.40
2022-08-31T02:02:05.071Z,7.65
2022-08-31T02:04:35.424Z,6.78
2022-08-31T02:07:05.615Z,8.65
2022-08-31T02:09:38.396Z,6.97
2022-08-31T02:12:09.050Z,7.03
2022-08-31T02:14:43.094Z,7.30
2022-08-31T02:17:13.632Z,7.68
2022-08-31T02:19:43.880Z,6.88
2022-08-31T02:22:14.071Z,8.63
2022-08-31T02:24:47.205Z,7.70
2022-08-31T02:27:17.310Z,9.07
2022-08-31T02:29:47.483Z,7.78
2022-08-31T02:32:21.290Z,9.48
2022-08-31T02:34:54.494Z,9.85
2022-08-31T02:37:24.783Z,8.38
2022-08-31T02:39:57.591Z,7.70
2022-08-31T02:42:33.057Z,8.45
2022-08-31T02:45:20.282Z,7.45
2022-08-31T02:47:50.593Z,7.00
2022-08-31T02:50:22.251Z,8.52
2022-08-31T02:52:55.125Z,8.52
2022-08-31T02:55:32.466Z,8.38
2022-08-31T02:58:02.715Z,8.45
2022-08-31T03:00:33.963Z,9.00
2022-08-31T03:03:04.591Z,8.43
2022-08-31T03:05:35.295Z,9.13
2022-08-31T03:08:06.498Z,9.23
2022-08-31T03:10:39.419Z,9.85
2022-08-31T03:13:09.891Z,9.07
2022-08-31T03:15:40.313Z,8.60
2022-08-31T03:18:10.636Z,10.18
2022-08-31T03:20:41.407Z,9.48
2022-08-31T03:23:12.339Z,10.13
2022-08-31T03:25:45.754Z,10.07
2022-08-31T03:28:15.995Z,9.20
2022-08-31T03:30:46.569Z,10.05
2022-08-31T03:33:16.939Z,10.50
2022-08-31T03:35:47.615Z,10.25
2022-08-31T03:38:18.337Z,11.07
2022-08-31T03:40:55.301Z,11.52
2022-08-31T03:43:25.626Z,10.75
2022-08-31T03:45:57.331Z,10.52
2022-08-31T03:48:27.944Z,9.95
2022-08-31T03:50:58.165Z,10.02
2022-08-31T03:53:28.785Z,10.55
2022-08-31T03:56:04.050Z,10.35
2022-08-31T03:58:35.466Z,10.30
2022-08-31T04:01:06.086Z,9.98
2022-08-31T04:03:41.616Z,9.55
2022-08-31T04:06:15.402Z,9.82
2022-08-31T04:08:45.941Z,10.50
2022-08-31T04:11:25.493Z,9.52
2022-08-31T04:14:15.336Z,9.88
2022-08-31T04:16:46.414Z,10.27
2022-08-31T04:19:17.673Z,11.18
2022-08-31T04:21:47.900Z,10.43
2022-08-31T04:24:18.015Z,9.63
2022-08-31T04:26:54.055Z,11.45
2022-08-31T04:29:24.607Z,10.20
2022-08-31T04:31:54.794Z,10.60
2022-08-31T04:34:25.641Z,12.65
2022-08-31T04:36:55.901Z,10.48
2022-08-31T04:39:26.365Z,11.18
2022-08-31T04:42:05.960Z,10.57
2022-08-31T04:44:36.297Z,9.98
2022-08-31T04:47:08.198Z,11.00
2022-08-31T04:49:39.573Z,9.90
2022-08-31T04:52:12.391Z,9.98
2022-08-31T04:54:42.561Z,10.10
2022-08-31T04:57:15.282Z,9.95
2022-08-31T04:59:45.515Z,9.77
2022-08-31T05:02:15.658Z,10.40
2022-08-31T05:04:45.901Z,10.10
2022-08-31T05:07:16.119Z,9.90
2022-08-31T05:09:46.361Z,10.63
2022-08-31T05:12:19.063Z,10.10
2022-08-31T05:14:51.393Z,10.85
2022-08-31T05:17:21.636Z,10.93
2022-08-31T05:19:54.280Z,10.55
2022-08-31T05:22:24.464Z,11.43
2022-08-31T05:24:54.711Z,10.05
2022-08-31T05:27:27.452Z,9.35
2022-08-31T05:29:57.651Z,9.63
2022-08-31T05:32:27.866Z,9.15
2022-08-31T05:34:58.831Z,9.20
2022-08-31T05:37:29.986Z,9.90
2022-08-31T05:40:00.472Z,8.85
2022-08-31T05:42:35.594Z,9.43
2022-08-31T05:45:06.009Z,9.07
2022-08-31T05:47:36.200Z,9.35
2022-08-31T05:50:08.354Z,9.10
2022-08-31T05:52:38.792Z,9.25
2022-08-31T05:55:09.707Z,8.65
2022-08-31T05:57:45.292Z,9.73
2022-08-31T06:00:20.847Z,11.68
2022-08-31T06:02:53.918Z,9.30
2022-08-31T06:05:24.667Z,9.23
2022-08-31T06:07:55.534Z,9.35
2022-08-31T06:10:26.671Z,9.20
2022-08-31T06:12:59.434Z,10.63
2022-08-31T06:15:29.682Z,10.50
2022-08-31T06:18:00.047Z,11.10
2022-08-31T06:20:30.313Z,10.48
2022-08-31T06:23:02.090Z,11.30
2022-08-31T06:25:32.250Z,11.32
2022-08-31T06:28:06.731Z,11.02
2022-08-31T06:30:54.314Z,11.30
2022-08-31T06:33:25.900Z,11.90
2022-08-31T06:35:56.306Z,11.10
2022-08-31T06:38:26.654Z,10.98
2022-08-31T06:40:59.652Z,10.95
2022-08-31T06:43:32.467Z,12.13
2022-08-31T06:46:02.744Z,11.50
2022-08-31T06:48:32.947Z,11.68
2022-08-31T06:51:03.881Z,11.45
2022-08-31T06:53:35.352Z,10.93
2022-08-31T06:56:20.236Z,11.10
2022-08-31T06:58:55.485Z,10.35
2022-08-31T07:01:35.869Z,11.32
2022-08-31T07:04:12.899Z,11.93
2022-08-31T07:06:47.417Z,10.45
2022-08-31T07:09:20.447Z,10.68
2022-08-31T07:11:54.329Z,12.40
2022-08-31T07:14:30.047Z,11.07
2022-08-31T07:17:03.054Z,12.30
2022-08-31T07:19:34.211Z,12.27
2022-08-31T07:22:09.277Z,12.20
2022-08-31T07:24:43.635Z,11.40
2022-08-31T07:27:16.399Z,11.57
2022-08-31T07:29:49.263Z,12.05
2022-08-31T07:32:20.108Z,11.48
2022-08-31T07:34:57.331Z,11.77
2022-08-31T07:37:42.563Z,12.40
2022-08-31T07:40:29.872Z,12.73
2022-08-31T07:43:04.730Z,12.68
2022-08-31T07:45:39.396Z,11.77
2022-08-31T07:48:10.658Z,11.00
2022-08-31T07:50:46.748Z,10.88
2022-08-31T07:53:17.034Z,10.25
2022-08-31T07:55:49.026Z,10.27
2022-08-31T07:58:22.640Z,9.25
2022-08-31T08:00:55.516Z,8.48
2022-08-31T08:03:30.026Z,8.20
2022-08-31T08:06:02.339Z,10.32
2022-08-31T08:08:34.543Z,7.55
2022-08-31T08:11:06.725Z,7.78
2022-08-31T08:13:38.969Z,6.93
2022-08-31T08:16:13.803Z,9.88
2022-08-31T08:18:44.282Z,6.97
2022-08-31T08:21:14.452Z,8.50
2022-08-31T08:23:46.231Z,6.80
2022-08-31T08:26:22.037Z,5.97
2022-08-31T08:28:53.015Z,4.28
2022-08-31T08:31:29.024Z,24.23
2022-08-31T08:34:00.113Z,5.22
2022-08-31T08:36:31.734Z,5.05
2022-08-31T08:39:01.871Z,7.60
2022-08-31T08:41:36.638Z,11.35
2022-08-31T08:44:17.800Z,4.88
2022-08-31T08:46:55.938Z,8.65
2022-08-31T08:49:41.735Z,34.55
2022-08-31T08:52:22.642Z,7.53
2022-08-31T08:54:58.451Z,7.22
2022-08-31T08:57:33.339Z,17.73
2022-08-31T09:00:11.634Z,5.80
2022-08-31T09:02:58.246Z,6.45
2022-08-31T09:05:59.257Z,6.38
2022-08-31T09:09:18.294Z,5.40
2022-08-31T09:12:05.096Z,9.35
2022-08-31T09:15:02.090Z,20.05
2022-08-31T09:18:01.839Z,11.90
2022-08-31T09:20:33.823Z,6.82
2022-08-31T09:23:08.498Z,6.93
2022-08-31T09:25:52.677Z,9.02
2022-08-31T09:28:44.923Z,8.88
2022-08-31T09:31:38.011Z,14.25
2022-08-31T09:34:29.394Z,8.90
2022-08-31T09:37:16.386Z,9.52
2022-08-31T09:39:50.350Z,9.52
2022-08-31T09:42:32.155Z,12.25
2022-08-31T09:45:13.761Z,8.00
2022-08-31T09:47:52.907Z,7.93
2022-08-31T09:50:40.302Z,8.20
2022-08-31T09:53:33.791Z,8.55
2022-08-31T09:56:19.944Z,10.18
2022-08-31T09:58:53.587Z,12.52
2022-08-31T10:01:38.113Z,8.10
2022-08-31T10:04:23.448Z,15.90
2022-08-31T10:07:08.059Z,7.75
2022-08-31T10:09:47.727Z,9.10
2022-08-31T10:12:29.233Z,7.25
2022-08-31T10:15:06.394Z,7.82
2022-08-31T10:17:50.127Z,9.35
2022-08-31T10:20:30.327Z,6.97
2022-08-31T10:23:17.163Z,6.80
2022-08-31T10:25:59.107Z,7.15
2022-08-31T10:28:39.283Z,7.43
2022-08-31T10:31:22.466Z,5.65
2022-08-31T10:34:15.574Z,7.85
2022-08-31T10:36:49.164Z,6.82
2022-08-31T10:39:38.708Z,7.90
2022-08-31T10:42:17.271Z,7.50
2022-08-31T10:44:57.194Z,7.85
2022-08-31T10:47:34.079Z,8.38
2022-08-31T10:50:05.637Z,6.75
2022-08-31T10:52:46.267Z,8.23
2022-08-31T10:55:33.105Z,5.63
2022-08-31T10:58:18.647Z,6.05
2022-08-31T11:00:56.252Z,6.70
2022-08-31T11:03:55.641Z,7.50
2022-08-31T11:06:35.897Z,7.65
2022-08-31T11:09:20.151Z,6.55
2022-08-31T11:12:07.316Z,8.35
2022-08-31T11:15:22.410Z,6.75
2022-08-31T11:18:50.686Z,6.65
2022-08-31T11:22:10.140Z,7.00
2022-08-31T11:25:47.907Z,7.38
2022-08-31T11:28:34.341Z,7.78
2022-08-31T11:31:20.312Z,8.07
2022-08-31T11:34:14.727Z,7.80
2022-08-31T11:36:58.002Z,8.57
2022-08-31T11:39:43.105Z,7.68
2022-08-31T11:42:51.046Z,7.80
2022-08-31T11:45:37.716Z,6.80
2022-08-31T11:48:11.555Z,6.20
2022-08-31T11:51:07.739Z,5.50
2022-08-31T11:53:44.581Z,6.50
2022-08-31T11:56:17.790Z,5.80
2022-08-31T11:58:48.188Z,5.38
2022-08-31T12:01:44.051Z,6.45
2022-08-31T12:05:03.181Z,6.22
2022-08-31T12:07:43.898Z,6.55
2022-08-31T12:10:40.267Z,5.88
2022-08-31T12:13:40.175Z,6.68
2022-08-31T12:16:50.532Z,5.55
2022-08-31T12:20:07.386Z,5.65
2022-08-31T12:23:37.691Z,6.63
2022-08-31T12:26:50.352Z,7.95
2022-08-31T12:29:35.555Z,10.07
2022-08-31T12:32:30.258Z,7.53
2022-08-31T12:35:17.016Z,8.55
2022-08-31T12:37:49.540Z,7.47
2022-08-31T12:40:24.476Z,6.97
2022-08-31T12:43:04.071Z,7.82
2022-08-31T12:46:26.824Z,7.50
2022-08-31T12:49:45.139Z,6.78
2022-08-31T12:52:35.344Z,6.68
2022-08-31T12:55:29.435Z,10.00
2022-08-31T12:58:32.174Z,8.00
2022-08-31T13:01:11.624Z,7.95
2022-08-31T13:03:53.976Z,7.72
2022-08-31T13:06:34.214Z,8.05
2022-08-31T13:09:05.856Z,7.10
2022-08-31T13:11:40.962Z,6.63
2022-08-31T13:14:18.677Z,6.63
2022-08-31T13:16:53.362Z,5.78
2022-08-31T13:19:29.468Z,5.93
2022-08-31T13:22:06.208Z,6.20
2022-08-31T13:24:41.460Z,7.18
2022-08-31T13:27:23.497Z,5.13
2022-08-31T13:29:56.967Z,5.75
2022-08-31T13:32:36.695Z,5.75
2022-08-31T13:35:16.488Z,6.90
2022-08-31T13:38:05.066Z,6.32
2022-08-31T13:40:39.614Z,6.00
2022-08-31T13:43:16.165Z,6.57
2022-08-31T13:45:58.547Z,5.65
2022-08-31T13:48:34.936Z,5.65
2022-08-31T13:51:13.486Z,5.65
2022-08-31T13:53:49.916Z,5.25
2022-08-31T13:56:53.537Z,6.40
2022-08-31T13:59:53.683Z,4.88
2022-08-31T14:02:38.331Z,5.20
2022-08-31T14:05:13.011Z,5.40
2022-08-31T14:08:02.413Z,6.05
2022-08-31T14:10:43.063Z,5.82
2022-08-31T14:13:27.856Z,5.43
2022-08-31T14:16:04.090Z,4.55
2022-08-31T14:18:49.905Z,5.90
2022-08-31T14:21:29.077Z,4.78
2022-08-31T14:24:02.519Z,5.60
2022-08-31T14:26:41.473Z,4.45
2022-08-31T14:29:19.243Z,6.43
2022-08-31T14:31:56.278Z,6.82
2022-08-31T14:34:33.985Z,4.63
2022-08-31T14:37:07.733Z,4.68
2022-08-31T14:39:41.929Z,7.20
2022-08-31T14:42:19.991Z,5.88
2022-08-31T14:44:56.712Z,4.65
2022-08-31T14:47:31.621Z,4.40
2022-08-31T14:50:05.820Z,5.25
2022-08-31T14:52:41.184Z,4.13
2022-08-31T14:55:17.039Z,4.85
2022-08-31T14:57:58.304Z,4.80
2022-08-31T15:00:31.868Z,4.40
2022-08-31T15:03:02.319Z,4.57
2022-08-31T15:05:39.087Z,4.32
2022-08-31T15:08:09.752Z,4.75
2022-08-31T15:10:41.179Z,4.85
2022-08-31T15:13:14.271Z,4.50
2022-08-31T15:15:47.573Z,6.68
2022-08-31T15:18:24.363Z,5.80
2022-08-31T15:20:55.919Z,4.78
2022-08-31T15:23:26.105Z,6.22
2022-08-31T15:26:06.603Z,5.10
2022-08-31T15:28:42.880Z,4.97
2022-08-31T15:31:25.814Z,4.80
2022-08-31T15:34:05.975Z,5.50
2022-08-31T15:36:38.507Z,5.18
2022-08-31T15:39:08.745Z,5.20
2022-08-31T15:41:39.141Z,4.53
2022-08-31T15:44:13.140Z,4.47
2022-08-31T15:46:55.761Z,4.80
2022-08-31T15:49:29.217Z,6.45
2022-08-31T15:51:59.469Z,5.50
2022-08-31T15:54:34.880Z,4.28
2022-08-31T15:57:08.110Z,5.82
2022-08-31T15:59:44.253Z,6.45
2022-08-31T16:02:20.994Z,5.85
2022-08-31T16:04:52.044Z,5.45
2022-08-31T16:07:23.125Z,4.90
2022-08-31T16:09:53.442Z,4.75
2022-08-31T16:12:23.697Z,5.13
2022-08-31T16:14:56.891Z,6.18
2022-08-31T16:17:27.188Z,5.00
2022-08-31T16:19:57.700Z,5.63
2022-08-31T16:22:28.320Z,4.18
2022-08-31T16:25:01.002Z,6.30
2022-08-31T16:27:34.014Z,5.25
2022-08-31T16:30:07.890Z,5.05
2022-08-31T16:32:38.180Z,5.20
2022-08-31T16:35:10.587Z,4.40
2022-08-31T16:37:40.765Z,3.80
2022-08-31T16:40:13.928Z,4.03
2022-08-31T16:42:46.537Z,5.03
2022-08-31T16:45:19.449Z,4.55
2022-08-31T16:47:49.581Z,4.60
2022-08-31T16:50:17.417Z,4.20
2022-08-31T16:52:51.022Z,6.10
2022-08-31T16:55:21.911Z,6.25
2022-08-31T16:57:52.145Z,4.50
2022-08-31T17:00:31.371Z,6.13
2022-08-31T17:03:04.148Z,4.90
2022-08-31T17:05:34.524Z,6.05
2022-08-31T17:08:04.950Z,4.72
2022-08-31T17:10:35.180Z,4.78
2022-08-31T17:13:05.544Z,4.50
2022-08-31T17:15:38.369Z,4.20
2022-08-31T17:18:11.160Z,4.90
2022-08-31T17:20:42.222Z,5.18
2022-08-31T17:23:13.070Z,4.85
2022-08-31T17:25:43.381Z,4.30
2022-08-31T17:28:14.872Z,6.70
2022-08-31T17:30:47.669Z,5.50
2022-08-31T17:33:17.937Z,5.95
2022-08-31T17:35:50.573Z,4.38
2022-08-31T17:38:21.034Z,6.18
2022-08-31T17:40:51.472Z,5.32
2022-08-31T17:43:22.000Z,4.35
2022-08-31T17:45:58.068Z,6.32
2022-08-31T17:48:28.336Z,4.90
2022-08-31T17:50:58.657Z,4.07
2022-08-31T17:53:28.794Z,4.65
2022-08-31T17:56:00.030Z,4.88
2022-08-31T17:58:30.446Z,4.25
2022-08-31T18:01:04.330Z,4.82
2022-08-31T18:03:36.965Z,4.32
2022-08-31T18:06:07.494Z,4.80
2022-08-31T18:08:38.461Z,5.05
2022-08-31T18:11:08.968Z,4.80
2022-08-31T18:13:41.559Z,4.93
2022-08-31T18:16:16.310Z,5.65
2022-08-31T18:18:48.682Z,4.55
2022-08-31T18:21:22.525Z,4.38
2022-08-31T18:23:54.825Z,5.60
2022-08-31T18:26:29.477Z,5.65
2022-08-31T18:29:00.613Z,5.00
2022-08-31T18:31:33.963Z,5.65
2022-08-31T18:34:07.498Z,5.25
2022-08-31T18:36:40.232Z,6.35
2022-08-31T18:39:22.765Z,5.35
2022-08-31T18:42:17.340Z,6.68
2022-08-31T18:44:59.938Z,4.95
2022-08-31T18:47:33.095Z,4.60
2022-08-31T18:50:03.465Z,4.40
2022-08-31T18:52:33.671Z,5.13
2022-08-31T18:55:03.812Z,4.85
2022-08-31T18:57:48.087Z,5.90
2022-08-31T19:00:20.145Z,5.35
2022-08-31T19:02:52.978Z,5.45
2022-08-31T19:05:25.361Z,4.95
2022-08-31T19:07:55.749Z,5.85
2022-08-31T19:10:26.544Z,6.90
2022-08-31T19:12:57.196Z,5.15
2022-08-31T19:15:36.220Z,8.15
2022-08-31T19:18:10.172Z,6.13
2022-08-31T19:20:40.338Z,5.13
2022-08-31T19:23:10.574Z,5.63
2022-08-31T19:25:45.226Z,5.47
2022-08-31T19:28:15.459Z,4.50
2022-08-31T19:30:50.334Z,5.65
2022-08-31T19:33:26.156Z,4.10
2022-08-31T19:36:06.443Z,5.03
2022-08-31T19:38:36.621Z,4.25
2022-08-31T19:41:06.967Z,3.75
2022-08-31T19:43:52.359Z,4.00
2022-08-31T19:46:28.670Z,3.95
2022-08-31T19:49:03.647Z,4.05
2022-08-31T19:51:36.052Z,4.30
2022-08-31T19:54:09.053Z,4.60
2022-08-31T19:56:42.956Z,4.00
2022-08-31T19:59:21.166Z,4.00
2022-08-31T20:01:55.703Z,3.85
2022-08-31T20:04:30.523Z,4.80
2022-08-31T20:07:02.238Z,4.10
2022-08-31T20:09:32.494Z,3.83
2022-08-31T20:12:03.304Z,4.10
2022-08-31T20:14:34.585Z,4.55
2022-08-31T20:17:10.388Z,5.20
2022-08-31T20:19:43.344Z,4.00
2022-08-31T20:22:13.637Z,4.10
2022-08-31T20:24:45.370Z,5.03
2022-08-31T20:27:18.881Z,4.45
2022-08-31T20:29:50.012Z,4.07
2022-08-31T20:32:20.726Z,4.28
2022-08-31T20:34:53.735Z,3.70
2022-08-31T20:37:26.930Z,3.65
2022-08-31T20:39:57.257Z,4.53
2022-08-31T20:42:27.613Z,3.47
2022-08-31T20:44:57.852Z,3.95
2022-08-31T20:47:40.466Z,5.32
2022-08-31T20:50:14.190Z,3.90
2022-08-31T20:52:45.505Z,3.75
2022-08-31T20:55:17.034Z,4.00
2022-08-31T20:57:50.409Z,4.68
2022-08-31T21:00:21.273Z,4.47
2022-08-31T21:02:52.077Z,3.80
2022-08-31T21:05:42.099Z,3.80
2022-08-31T21:08:16.457Z,5.07
2022-08-31T21:10:46.710Z,4.70
2022-08-31T21:13:16.942Z,4.85
2022-08-31T21:15:49.553Z,4.15
2022-08-31T21:18:19.756Z,4.28
2022-08-31T21:20:52.596Z,4.65
2022-08-31T21:23:22.876Z,4.95
2022-08-31T21:25:53.098Z,4.10
2022-08-31T21:28:25.522Z,4.32
2022-08-31T21:31:15.383Z,4.97
2022-08-31T21:33:51.904Z,3.70
2022-08-31T21:36:26.777Z,3.72
2022-08-31T21:39:00.133Z,3.92
2022-08-31T21:41:32.152Z,3.80
2022-08-31T21:44:03.114Z,4.00
2022-08-31T21:46:34.959Z,3.92
2022-08-31T21:49:05.710Z,4.13
2022-08-31T21:51:48.737Z,3.58
2022-08-31T21:54:21.447Z,3.33
2022-08-31T21:56:55.472Z,3.30
2022-08-31T21:59:32.731Z,3.55
2022-08-31T22:02:06.749Z,4.95
2022-08-31T22:04:41.275Z,3.35
2022-08-31T22:07:15.499Z,3.53
2022-08-31T22:09:46.779Z,3.33
2022-08-31T22:12:18.592Z,3.03
2022-08-31T22:14:50.868Z,3.35
2022-08-31T22:17:26.521Z,4.75
2022-08-31T22:20:03.067Z,4.45
2022-08-31T22:22:36.638Z,4.72
2022-08-31T22:25:08.499Z,2.95
2022-08-31T22:27:39.575Z,3.10
2022-08-31T22:30:16.475Z,2.95
2022-08-31T22:32:48.027Z,4.45
2022-08-31T22:35:18.971Z,3.08
2022-08-31T22:37:52.896Z,3.35
2022-08-31T22:40:23.333Z,3.67
2022-08-31T22:42:56.016Z,3.15
2022-08-31T22:45:27.475Z,2.90
2022-08-31T22:47:57.686Z,3.05
2022-08-31T22:50:27.888Z,3.55
2022-08-31T22:53:00.762Z,3.65
2022-08-31T22:55:31.303Z,2.97
2022-08-31T22:58:01.565Z,5.13
2022-08-31T23:00:31.712Z,3.05
2022-08-31T23:03:02.210Z,4.05
2022-08-31T23:05:32.593Z,3.58
2022-08-31T23:08:08.514Z,3.05
2022-08-31T23:10:38.663Z,4.57
2022-08-31T23:13:09.044Z,2.97
2022-08-31T23:15:40.555Z,2.90
2022-08-31T23:18:13.516Z,3.70
2022-08-31T23:20:43.753Z,3.20
2022-08-31T23:23:16.592Z,3.17
2022-08-31T23:25:46.747Z,3.22
2022-08-31T23:28:17.937Z,3.25
2022-08-31T23:30:55.510Z,2.92
2022-08-31T23:33:26.620Z,2.88
2022-08-31T23:35:57.027Z,5.93
2022-08-31T23:38:32.814Z,3.20
2022-08-31T23:41:04.712Z,3.78
2022-08-31T23:43:38.411Z,3.03
2022-08-31T23:46:09.075Z,3.10
2022-08-31T23:48:39.238Z,2.70
2022-08-31T23:51:12.807Z,3.25
2022-08-31T23:53:48.613Z,3.53
2022-08-31T23:56:18.821Z,3.25
2022-08-31T23:58:48.995Z,4.80
